Time;durP1;ratioP1;P1;durP2;ratioP2;P2;SDS_P1;SDS_P2;PMS_P1;PMS_P2;Temp;Humidity;BMP_temperature;BMP_pressure;BME280_temperature;BME280_humidity;BME280_pressure;Samples;Min_cycle;Max_cycle;Signal;HPM_P1;HPM_P2
2023/01/01 00:01:59;;;;;;;6.95;1.35;;;28.60;83.10;;;;;;5033913;28;20021;-66
2023/01/01 00:04:26;;;;;;;6.10;1.33;;;28.70;81.20;;;;;;5048281;28;20037;-65
2023/01/01 00:06:53;;;;;;;7.60;1.10;;;28.90;84.90;;;;;;5034990;28;20092;-64
2023/01/01 00:12:06;;;;;;;5.13;0.90;;;30.20;73.90;;;;;;5034074;28;20036;-64
2023/01/01 00:14:33;;;;;;;4.15;1.00;;;30.60;74.20;;;;;;5033155;28;20053;-65
2023/01/01 00:17:00;;;;;;;4.95;1.17;;;30.60;70.50;;;;;;5041689;28;20031;-63
2023/01/01 00:19:28;;;;;;;3.63;1.17;;;30.90;71.40;;;;;;5040450;28;20523;-64
2023/01/01 00:21:55;;;;;;;6.30;0.98;;;30.90;68.20;;;;;;5033349;28;20018;-63
2023/01/01 00:24:22;;;;;;;5.53;1.15;;;31.00;70.70;;;;;;5043627;28;20059;-63
2023/01/01 00:26:49;;;;;;;5.00;1.52;;;31.40;71.60;;;;;;5047868;28;20020;-64
2023/01/01 00:29:17;;;;;;;4.38;1.20;;;31.70;68.70;;;;;;5031617;28;20025;-65
2023/01/01 00:31:44;;;;;;;7.00;1.35;;;31.30;68.50;;;;;;5029321;28;20172;-65
2023/01/01 00:34:11;;;;;;;5.97;1.10;;;30.80;68.50;;;;;;5031301;28;20037;-66
2023/01/01 00:36:38;;;;;;;6.40;1.40;;;30.30;70.50;;;;;;5038047;28;20446;-63
2023/01/01 00:39:06;;;;;;;7.05;1.35;;;30.30;72.00;;;;;;5041505;28;20032;-63
2023/01/01 00:41:33;;;;;;;8.07;1.10;;;30.40;68.90;;;;;;5046716;28;20060;-64
2023/01/01 00:44:00;;;;;;;6.60;1.30;;;30.60;68.50;;;;;;5028606;28;20025;-63
2023/01/01 00:46:27;;;;;;;4.30;1.10;;;30.90;69.30;;;;;;5037385;28;20021;-64
2023/01/01 00:48:55;;;;;;;5.15;1.05;;;31.30;68.70;;;;;;5038775;28;20041;-63
2023/01/01 00:51:22;;;;;;;6.07;1.30;;;32.00;62.80;;;;;;5039083;28;20393;-63
2023/01/01 00:53:49;;;;;;;5.53;1.15;;;32.60;61.70;;;;;;5038205;28;20025;-63
2023/01/01 00:56:16;;;;;;;5.25;1.10;;;32.70;59.90;;;;;;5032860;28;20112;-62
2023/01/01 00:58:44;;;;;;;4.93;1.88;;;33.10;63.20;;;;;;5041790;28;20040;-63
2023/01/01 01:01:11;;;;;;;4.20;1.20;;;33.60;60.50;;;;;;5029937;28;20032;-62
2023/01/01 01:03:39;;;;;;;5.47;1.77;;;33.60;60.00;;;;;;5033238;28;20029;-64
2023/01/01 01:06:08;;;;;;;3.85;1.10;;;33.60;58.00;;;;;;5042709;28;20055;-63
2023/01/01 01:08:39;;;;;;;4.50;1.30;;;32.60;59.30;;;;;;5034557;28;20544;-63
2023/01/01 01:11:08;;;;;;;8.27;1.33;;;31.90;59.80;;;;;;5039861;28;20021;-63
2023/01/01 01:13:36;;;;;;;8.00;1.70;;;31.20;62.30;;;;;;5048404;28;20122;-63
2023/01/01 01:16:22;;;;;;;5.13;1.48;;;31.70;63.50;;;;;;5041786;28;20389;-62
2023/01/01 01:18:59;;;;;;;4.18;1.00;;;32.10;64.60;;;;;;5046337;28;20035;-63
2023/01/01 01:21:28;;;;;;;3.53;1.15;;;32.70;63.10;;;;;;5050154;28;20029;-63
2023/01/01 01:23:58;;;;;;;8.27;1.80;;;33.00;60.10;;;;;;5036957;28;20116;-64
2023/01/01 01:26:28;;;;;;;5.05;1.77;;;33.10;61.90;;;;;;5047599;28;20025;-65
2023/01/01 01:28:56;;;;;;;6.57;1.67;;;32.80;61.40;;;;;;5051348;28;20021;-66
2023/01/01 01:31:26;;;;;;;5.00;1.27;;;32.70;62.70;;;;;;5046089;28;20052;-64
2023/01/01 01:33:54;;;;;;;8.38;1.48;;;32.40;61.80;;;;;;5041139;28;20029;-64
2023/01/01 01:36:21;;;;;;;7.75;1.35;;;31.70;62.10;;;;;;5053494;28;20018;-66
2023/01/01 01:38:48;;;;;;;5.38;1.52;;;31.60;63.70;;;;;;5050434;28;20041;-64
2023/01/01 01:41:18;;;;;;;7.68;1.50;;;31.50;65.00;;;;;;5040928;28;20020;-66
2023/01/01 01:43:50;;;;;;;7.13;1.55;;;30.90;66.30;;;;;;5040683;28;20021;-65
2023/01/01 01:46:26;;;;;;;10.15;1.92;;;30.10;68.80;;;;;;5036345;28;20457;-67
2023/01/01 01:48:58;;;;;;;9.68;1.67;;;29.80;72.30;;;;;;5043461;28;20045;-66
2023/01/01 01:51:30;;;;;;;6.72;1.58;;;29.40;73.30;;;;;;5047165;28;20433;-64
2023/01/01 01:54:02;;;;;;;10.48;1.77;;;29.00;74.30;;;;;;5031352;28;20018;-67
2023/01/01 01:56:40;;;;;;;5.28;1.35;;;29.00;76.40;;;;;;5046565;28;20166;-65
2023/01/01 01:59:08;;;;;;;4.57;1.38;;;29.30;75.60;;;;;;5050010;28;20025;-65
2023/01/01 02:01:35;;;;;;;7.43;1.50;;;29.10;76.60;;;;;;5037122;28;20104;-65
2023/01/01 02:04:03;;;;;;;9.50;1.70;;;28.80;77.20;;;;;;5047678;28;20036;-64
2023/01/01 02:06:32;;;;;;;5.57;1.58;;;28.80;76.00;;;;;;5036928;28;20025;-64
2023/01/01 02:09:03;;;;;;;5.25;1.15;;;29.10;75.40;;;;;;5039432;28;20021;-63
2023/01/01 02:11:30;;;;;;;5.10;1.35;;;29.10;76.50;;;;;;5051988;28;20021;-66
2023/01/01 02:13:59;;;;;;;5.75;1.35;;;29.70;73.70;;;;;;5053012;28;20020;-63
2023/01/01 02:16:41;;;;;;;8.98;1.42;;;29.70;72.20;;;;;;5047688;28;20021;-65
2023/01/01 02:19:36;;;;;;;10.15;1.48;;;29.60;73.60;;;;;;5035510;28;20374;-62
2023/01/01 02:22:10;;;;;;;6.28;2.08;;;29.90;71.90;;;;;;5038815;28;20478;-63
2023/01/01 02:25:04;;;;;;;8.88;1.80;;;30.40;70.10;;;;;;5048168;28;20048;-65
2023/01/01 02:27:39;;;;;;;10.45;1.50;;;30.40;68.10;;;;;;5037106;28;20052;-63
2023/01/01 02:30:08;;;;;;;3.08;0.88;;;30.50;68.60;;;;;;5033364;28;20426;-65
2023/01/01 02:32:39;;;;;;;10.40;2.10;;;30.30;69.00;;;;;;5035827;28;20025;-67
2023/01/01 02:38:16;;;;;;;5.32;1.42;;;30.90;66.90;;;;;;5037290;28;20048;-66
2023/01/01 02:40:50;;;;;;;7.78;1.60;;;31.50;65.10;;;;;;5038168;28;20087;-67
2023/01/01 02:43:18;;;;;;;8.20;1.58;;;31.00;64.80;;;;;;5032473;28;20465;-65
2023/01/01 02:45:45;;;;;;;8.23;1.67;;;30.20;67.30;;;;;;5041916;28;20037;-65
2023/01/01 02:48:42;;;;;;;8.05;1.30;;;30.00;74.60;;;;;;5042185;28;20249;-65
2023/01/01 02:51:24;;;;;;;6.20;1.85;;;29.60;76.40;;;;;;5051797;28;20027;-64
2023/01/01 02:54:09;;;;;;;5.55;1.63;;;29.50;78.50;;;;;;5039290;28;20025;-64
2023/01/01 02:56:45;;;;;;;7.93;1.50;;;29.20;80.00;;;;;;5041053;28;20029;-66
2023/01/01 03:02:29;;;;;;;7.68;1.42;;;28.30;81.70;;;;;;5049951;28;20048;-64
2023/01/01 03:05:35;;;;;;;6.07;1.50;;;28.30;84.90;;;;;;5031158;28;20059;-63
2023/01/01 03:08:22;;;;;;;5.97;1.70;;;28.60;85.20;;;;;;5045030;28;20045;-63
2023/01/01 03:11:08;;;;;;;9.52;2.30;;;28.30;83.40;;;;;;5041999;28;20036;-64
2023/01/01 03:13:43;;;;;;;10.68;1.70;;;28.10;85.90;;;;;;5045259;28;20475;-64
2023/01/01 03:16:29;;;;;;;6.53;1.73;;;28.30;86.00;;;;;;5046561;28;20393;-64
2023/01/01 03:19:11;;;;;;;5.32;1.45;;;28.70;84.50;;;;;;5050018;28;20024;-63
2023/01/01 03:21:41;;;;;;;7.80;1.58;;;28.50;83.00;;;;;;5042064;28;20406;-65
2023/01/01 03:24:16;;;;;;;5.53;1.40;;;28.30;85.00;;;;;;5049160;28;20119;-65
2023/01/01 03:26:48;;;;;;;8.80;1.30;;;28.90;83.20;;;;;;5050501;28;20036;-65
2023/01/01 03:29:17;;;;;;;3.83;1.08;;;29.20;79.60;;;;;;5049072;28;20017;-64
2023/01/01 03:31:47;;;;;;;9.27;1.80;;;29.30;78.10;;;;;;5032900;28;20440;-63
2023/01/01 03:34:22;;;;;;;5.60;1.70;;;29.00;78.80;;;;;;5048275;28;20025;-62
2023/01/01 03:36:54;;;;;;;6.93;1.48;;;29.00;80.70;;;;;;5048301;28;20474;-63
2023/01/01 03:39:33;;;;;;;4.32;1.05;;;29.20;79.00;;;;;;5041597;28;20033;-64
2023/01/01 03:42:20;;;;;;;6.18;1.38;;;28.80;79.20;;;;;;5047855;28;20027;-63
2023/01/01 03:45:00;;;;;;;10.95;2.28;;;28.70;79.40;;;;;;5047236;28;20040;-64
2023/01/01 03:47:29;;;;;;;4.75;1.20;;;29.00;78.30;;;;;;5052493;28;20025;-62
2023/01/01 03:49:57;;;;;;;4.30;1.35;;;29.20;76.80;;;;;;5031871;28;20508;-61
2023/01/01 03:52:43;;;;;;;4.90;1.70;;;29.30;78.90;;;;;;5039199;28;20123;-64
2023/01/01 03:55:23;;;;;;;8.40;2.28;;;29.30;75.60;;;;;;5046147;28;20060;-63
2023/01/01 03:58:01;;;;;;;6.40;2.00;;;29.00;75.70;;;;;;5033869;28;20390;-62
2023/01/01 04:00:38;;;;;;;4.32;1.20;;;29.20;75.50;;;;;;5035682;28;20060;-62
2023/01/01 04:03:19;;;;;;;7.30;1.83;;;29.00;76.00;;;;;;5047610;28;20478;-63
2023/01/01 04:05:47;;;;;;;5.43;1.33;;;29.10;75.80;;;;;;5045987;28;20036;-62
2023/01/01 04:08:15;;;;;;;5.00;1.85;;;29.30;73.70;;;;;;5032944;28;20025;-63
2023/01/01 04:10:46;;;;;;;6.85;1.58;;;29.20;73.20;;;;;;5030014;28;20030;-63
2023/01/01 04:13:14;;;;;;;5.38;1.25;;;29.60;72.30;;;;;;5033738;28;20036;-62
2023/01/01 04:15:42;;;;;;;5.10;1.30;;;29.70;72.10;;;;;;5038254;28;20143;-63
2023/01/01 04:18:09;;;;;;;7.68;1.30;;;29.70;70.60;;;;;;5066659;28;20029;-63
2023/01/01 04:20:36;;;;;;;6.75;1.30;;;29.60;71.70;;;;;;5063156;28;20029;-63
2023/01/01 04:23:04;;;;;;;7.45;1.33;;;29.50;71.60;;;;;;5038572;28;20029;-64
2023/01/01 04:25:31;;;;;;;6.40;1.60;;;29.40;72.20;;;;;;5044605;28;20033;-64
2023/01/01 04:27:58;;;;;;;9.98;1.80;;;29.50;72.10;;;;;;5056250;28;20560;-62
2023/01/01 04:30:27;;;;;;;10.95;1.77;;;29.50;72.80;;;;;;5049004;28;20355;-64
2023/01/01 04:32:55;;;;;;;6.32;1.30;;;29.60;73.30;;;;;;5032730;28;20104;-65
2023/01/01 04:35:22;;;;;;;6.57;1.00;;;29.80;71.40;;;;;;5028659;28;20486;-63
2023/01/01 04:37:49;;;;;;;6.72;1.65;;;29.90;69.70;;;;;;5029633;28;20143;-62
2023/01/01 04:40:17;;;;;;;5.90;1.27;;;30.20;70.10;;;;;;5035158;28;20390;-63
2023/01/01 04:42:44;;;;;;;7.53;1.73;;;30.70;69.00;;;;;;5029628;28;20386;-64
2023/01/01 04:45:13;;;;;;;6.53;1.23;;;30.80;70.90;;;;;;5030285;28;20037;-62
2023/01/01 04:47:40;;;;;;;4.78;1.35;;;30.70;70.60;;;;;;5038892;28;20080;-63
2023/01/01 04:50:08;;;;;;;7.03;1.25;;;30.10;71.40;;;;;;5030365;28;20024;-62
2023/01/01 04:52:36;;;;;;;8.13;1.67;;;29.80;74.70;;;;;;5033084;28;20024;-61
2023/01/01 04:55:03;;;;;;;6.80;2.00;;;29.90;71.90;;;;;;5039611;28;20044;-61
2023/01/01 04:57:31;;;;;;;6.72;1.73;;;29.50;72.20;;;;;;5035827;28;20025;-61
2023/01/01 04:59:58;;;;;;;8.50;1.80;;;29.50;71.90;;;;;;5044163;28;20025;-63
2023/01/01 05:02:26;;;;;;;7.78;1.50;;;29.90;71.40;;;;;;5035929;28;20044;-64
2023/01/01 05:04:53;;;;;;;4.93;1.17;;;30.30;70.00;;;;;;5035738;28;20390;-64
2023/01/01 05:07:20;;;;;;;6.85;1.30;;;30.60;70.50;;;;;;5057509;28;20021;-64
2023/01/01 05:09:47;;;;;;;7.43;1.67;;;29.90;71.20;;;;;;5051683;28;20595;-65
2023/01/01 05:12:15;;;;;;;5.80;1.48;;;29.10;72.30;;;;;;5044638;28;20382;-66
2023/01/01 05:14:42;;;;;;;7.70;1.33;;;28.70;73.80;;;;;;5040234;28;20040;-64
2023/01/01 05:17:09;;;;;;;8.57;1.40;;;28.60;74.30;;;;;;5041486;28;20127;-63
2023/01/01 05:19:37;;;;;;;8.15;1.50;;;28.10;76.50;;;;;;5035303;28;20033;-66
2023/01/01 05:22:04;;;;;;;7.60;1.33;;;28.40;77.60;;;;;;5032722;28;20018;-64
2023/01/01 05:24:35;;;;;;;8.38;1.30;;;28.80;75.10;;;;;;5029483;28;20029;-64
2023/01/01 05:27:02;;;;;;;9.48;2.25;;;29.10;75.50;;;;;;5046487;28;20120;-64
2023/01/01 05:29:29;;;;;;;7.15;1.95;;;28.90;74.10;;;;;;5037725;28;20176;-63
2023/01/01 05:31:57;;;;;;;9.60;1.70;;;28.70;75.00;;;;;;5033085;28;20576;-64
2023/01/01 05:34:24;;;;;;;8.50;1.80;;;28.40;76.30;;;;;;5048736;28;20025;-63
2023/01/01 05:36:51;;;;;;;8.55;1.98;;;28.20;77.20;;;;;;5038419;28;20033;-64
2023/01/01 05:39:18;;;;;;;10.45;1.60;;;27.90;77.40;;;;;;5050229;28;20052;-64
2023/01/01 05:41:45;;;;;;;8.25;1.33;;;27.40;78.90;;;;;;5050144;28;20021;-63
2023/01/01 05:44:15;;;;;;;4.43;1.00;;;27.20;80.40;;;;;;5039320;28;20132;-64
2023/01/01 05:46:42;;;;;;;9.98;1.83;;;27.80;80.40;;;;;;5037670;28;20582;-63
2023/01/01 05:49:13;;;;;;;6.53;1.48;;;28.50;78.50;;;;;;5034482;28;20044;-63
2023/01/01 05:51:40;;;;;;;6.40;1.48;;;29.00;75.00;;;;;;5050473;28;20021;-63
2023/01/01 05:54:09;;;;;;;6.90;1.33;;;29.30;73.20;;;;;;5050154;28;20061;-64
2023/01/01 05:56:36;;;;;;;5.78;1.88;;;29.50;71.40;;;;;;5045469;28;20025;-64
2023/01/01 05:59:04;;;;;;;6.85;1.23;;;29.00;72.20;;;;;;5038916;28;20075;-64
2023/01/01 06:01:32;;;;;;;11.52;2.10;;;28.30;74.90;;;;;;5036376;28;20538;-63
2023/01/01 06:03:59;;;;;;;9.43;1.75;;;28.00;77.20;;;;;;5042381;28;20020;-63
2023/01/01 06:06:30;;;;;;;7.85;1.33;;;27.90;75.20;;;;;;5042418;28;20113;-63
2023/01/01 06:09:02;;;;;;;8.00;1.40;;;28.00;73.90;;;;;;5029480;28;20056;-63
2023/01/01 06:11:30;;;;;;;6.55;1.17;;;28.20;73.80;;;;;;5028914;28;20022;-63
2023/01/01 06:13:59;;;;;;;7.80;1.45;;;28.30;71.60;;;;;;5045046;28;20089;-64
2023/01/01 06:16:27;;;;;;;7.10;2.08;;;28.50;71.50;;;;;;5029327;28;20413;-64
2023/01/01 06:18:55;;;;;;;6.22;1.13;;;28.80;71.10;;;;;;5031764;28;20108;-64
2023/01/01 06:21:24;;;;;;;6.47;1.42;;;29.10;69.00;;;;;;5042544;28;20056;-64
2023/01/01 06:23:54;;;;;;;5.55;1.17;;;29.20;67.90;;;;;;5041460;28;20033;-64
2023/01/01 06:26:24;;;;;;;7.20;1.60;;;28.70;69.30;;;;;;5032696;28;20032;-64
2023/01/01 06:28:52;;;;;;;5.18;1.20;;;28.50;70.20;;;;;;5039398;28;20025;-65
2023/01/01 06:31:21;;;;;;;6.22;1.40;;;28.50;70.30;;;;;;5040329;28;20021;-64
2023/01/01 06:33:49;;;;;;;7.13;1.27;;;28.80;68.60;;;;;;5046700;28;20021;-62
2023/01/01 06:36:19;;;;;;;5.50;1.10;;;28.90;69.10;;;;;;5046806;28;20024;-63
2023/01/01 06:38:49;;;;;;;4.45;0.90;;;29.10;69.90;;;;;;5029001;28;20052;-64
2023/01/01 06:41:21;;;;;;;7.55;1.10;;;29.20;68.70;;;;;;5035736;28;20041;-63
2023/01/01 06:43:49;;;;;;;8.32;1.67;;;29.10;70.70;;;;;;5036558;28;20029;-65
2023/01/01 06:46:20;;;;;;;5.75;1.83;;;29.20;71.80;;;;;;5031030;28;20116;-64
2023/01/01 06:48:55;;;;;;;8.02;1.35;;;28.90;72.10;;;;;;5033053;28;20053;-64
2023/01/01 06:51:28;;;;;;;7.50;1.85;;;28.70;74.20;;;;;;5031943;28;20040;-64
2023/01/01 06:53:57;;;;;;;7.68;1.45;;;28.60;74.30;;;;;;5040241;28;20024;-65
2023/01/01 06:56:25;;;;;;;10.80;1.60;;;28.30;75.10;;;;;;5034217;28;20371;-64
2023/01/01 06:58:52;;;;;;;7.60;2.38;;;27.80;76.30;;;;;;5038926;28;20048;-64
2023/01/01 07:01:25;;;;;;;10.85;2.60;;;27.30;78.80;;;;;;5039097;28;20060;-63
2023/01/01 07:03:55;;;;;;;6.33;1.30;;;27.20;79.80;;;;;;5039458;28;20032;-63
2023/01/01 07:06:24;;;;;;;9.50;2.70;;;27.10;80.90;;;;;;5031918;28;20112;-64
2023/01/01 07:08:51;;;;;;;6.22;1.40;;;27.30;80.90;;;;;;5040457;28;20486;-63
2023/01/01 07:11:19;;;;;;;8.43;1.20;;;27.30;80.20;;;;;;5036816;28;20029;-63
2023/01/01 07:13:46;;;;;;;6.88;1.58;;;27.40;79.40;;;;;;5033076;28;20036;-63
2023/01/01 07:16:14;;;;;;;8.73;1.70;;;27.60;79.80;;;;;;5031164;28;20030;-66
2023/01/01 07:18:41;;;;;;;7.68;1.15;;;27.90;79.30;;;;;;5032406;28;20027;-65
2023/01/01 07:22:04;;;;;;;7.57;1.17;;;27.60;80.30;;;;;;5044730;28;20083;-65
2023/01/01 07:24:31;;;;;;;14.73;1.35;;;27.60;80.20;;;;;;5007606;28;20042;-67
2023/01/01 07:26:58;;;;;;;6.43;1.17;;;27.70;81.10;;;;;;5035064;28;20037;-68
2023/01/01 07:29:25;;;;;;;10.57;2.00;;;27.40;80.90;;;;;;5032212;28;20028;-67
2023/01/01 07:31:53;;;;;;;12.50;2.15;;;27.00;83.30;;;;;;5030037;28;20594;-68
2023/01/01 07:34:21;;;;;;;8.63;2.30;;;26.90;84.50;;;;;;5030971;28;20021;-67
2023/01/01 07:36:49;;;;;;;8.70;1.63;;;26.50;86.40;;;;;;5027501;28;20561;-67
2023/01/01 07:39:16;;;;;;;11.02;2.10;;;26.50;88.70;;;;;;5026831;28;20041;-67
2023/01/01 07:41:44;;;;;;;5.43;1.60;;;26.60;88.70;;;;;;5046060;28;20497;-67
2023/01/01 07:44:11;;;;;;;6.70;1.30;;;26.70;89.20;;;;;;5048238;28;20076;-67
2023/01/01 07:46:39;;;;;;;8.05;1.80;;;26.80;86.30;;;;;;5039161;28;20032;-69
2023/01/01 07:49:06;;;;;;;6.97;1.65;;;26.90;84.20;;;;;;5048815;28;20049;-66
2023/01/01 07:51:33;;;;;;;10.05;2.00;;;26.80;83.90;;;;;;5047830;28;20681;-68
2023/01/01 07:54:01;;;;;;;6.30;1.77;;;26.60;84.70;;;;;;5027670;28;20025;-67
2023/01/01 07:56:28;;;;;;;5.45;1.40;;;26.60;84.10;;;;;;5049793;28;20429;-68
2023/01/01 07:58:55;;;;;;;10.00;1.52;;;26.50;81.70;;;;;;5052247;28;20021;-68
2023/01/01 08:01:22;;;;;;;5.35;1.30;;;26.30;83.40;;;;;;5040705;28;20036;-67
2023/01/01 08:03:53;;;;;;;8.55;1.80;;;26.10;85.90;;;;;;5044117;28;20025;-66
2023/01/01 08:06:21;;;;;;;10.07;1.63;;;25.80;87.00;;;;;;5050420;28;20029;-67
2023/01/01 08:08:48;;;;;;;8.15;1.77;;;25.60;89.10;;;;;;5060247;28;20024;-67
2023/01/01 08:11:15;;;;;;;11.07;1.98;;;25.30;90.60;;;;;;5066281;28;20031;-67
2023/01/01 08:13:42;;;;;;;9.70;2.10;;;25.10;91.90;;;;;;5054223;28;20013;-67
2023/01/01 08:16:10;;;;;;;9.77;1.52;;;24.90;92.70;;;;;;5040359;28;20059;-68
2023/01/01 08:18:37;;;;;;;13.07;1.80;;;24.70;93.00;;;;;;5035177;28;20183;-67
2023/01/01 08:21:05;;;;;;;9.32;1.63;;;24.50;93.40;;;;;;5032468;28;20138;-67
2023/01/01 08:23:32;;;;;;;11.35;3.17;;;24.40;94.00;;;;;;5036023;28;20033;-67
2023/01/01 08:26:03;;;;;;;16.15;5.72;;;24.30;93.80;;;;;;5041641;28;20041;-69
2023/01/01 08:28:31;;;;;;;12.52;5.82;;;24.30;94.20;;;;;;5045865;28;20503;-68
2023/01/01 08:30:59;;;;;;;13.90;5.38;;;24.20;94.40;;;;;;5045402;28;20036;-68
2023/01/01 08:33:26;;;;;;;8.80;2.45;;;24.10;94.80;;;;;;5046916;28;20059;-68
2023/01/01 08:35:53;;;;;;;19.70;2.67;;;24.00;95.40;;;;;;5030979;28;20483;-68
2023/01/01 08:38:21;;;;;;;10.98;2.40;;;23.90;95.40;;;;;;5034493;28;20033;-68
2023/01/01 08:40:48;;;;;;;15.07;5.45;;;23.80;95.80;;;;;;5043994;28;20085;-68
2023/01/01 08:43:15;;;;;;;13.85;2.28;;;23.70;96.20;;;;;;5039662;28;20034;-70
2023/01/01 08:45:42;;;;;;;8.55;1.70;;;23.60;96.70;;;;;;5036918;28;20094;-68
2023/01/01 08:48:11;;;;;;;10.25;1.85;;;23.60;97.20;;;;;;5044832;28;20041;-69
2023/01/01 08:50:38;;;;;;;15.82;1.88;;;23.50;97.30;;;;;;5038858;28;20104;-67
2023/01/01 08:53:05;;;;;;;8.00;1.55;;;23.40;97.80;;;;;;5027750;28;20478;-68
2023/01/01 08:55:32;;;;;;;11.43;2.50;;;23.40;98.40;;;;;;5035497;28;20025;-69
2023/01/01 08:58:00;;;;;;;9.57;1.88;;;23.30;99.10;;;;;;5043901;28;20078;-68
2023/01/01 09:00:27;;;;;;;15.35;2.30;;;23.20;99.20;;;;;;5044675;28;20102;-68
2023/01/01 09:02:54;;;;;;;9.27;2.35;;;23.10;99.40;;;;;;5044185;28;20029;-68
2023/01/01 09:05:21;;;;;;;12.43;2.80;;;23.10;99.50;;;;;;5039775;28;20036;-67
2023/01/01 09:07:49;;;;;;;20.25;6.70;;;23.10;99.40;;;;;;5026848;28;20398;-68
2023/01/01 09:10:16;;;;;;;16.20;8.45;;;23.00;99.80;;;;;;5037770;28;20052;-69
2023/01/01 09:12:43;;;;;;;14.05;4.00;;;22.90;99.40;;;;;;5024386;28;20037;-66
2023/01/01 09:15:18;;;;;;;15.60;3.22;;;22.90;99.60;;;;;;5031353;28;20041;-69
2023/01/01 09:17:46;;;;;;;14.35;5.03;;;22.90;99.80;;;;;;5034638;28;20029;-69
2023/01/01 09:20:13;;;;;;;11.60;2.72;;;22.90;99.90;;;;;;5043995;28;20033;-70
2023/01/01 09:22:40;;;;;;;12.43;2.53;;;22.80;99.90;;;;;;5044377;28;20025;-69
2023/01/01 09:25:08;;;;;;;14.50;2.35;;;22.80;99.90;;;;;;5026112;28;20045;-69
2023/01/01 09:27:35;;;;;;;13.77;2.30;;;22.80;99.90;;;;;;5033214;28;20732;-67
2023/01/01 09:30:03;;;;;;;9.20;2.08;;;22.80;99.90;;;;;;5024238;28;20033;-68
2023/01/01 09:32:30;;;;;;;9.35;1.80;;;22.80;99.90;;;;;;5022871;28;20035;-70
2023/01/01 09:34:59;;;;;;;10.13;3.05;;;22.70;99.90;;;;;;5028347;28;20033;-69
2023/01/01 09:37:27;;;;;;;13.45;2.20;;;22.70;99.90;;;;;;5035969;28;20022;-68
2023/01/01 09:39:54;;;;;;;10.20;2.05;;;22.70;99.90;;;;;;5037014;28;20107;-68
2023/01/01 09:42:44;;;;;;;17.38;2.90;;;22.70;99.90;;;;;;5035969;28;20030;-69
2023/01/01 09:45:20;;;;;;;12.93;2.20;;;22.70;99.90;;;;;;5034949;28;20110;-70
2023/01/01 09:47:52;;;;;;;9.93;2.20;;;22.70;99.90;;;;;;5033105;28;20528;-69
2023/01/01 09:50:22;;;;;;;10.55;2.25;;;22.70;99.90;;;;;;5026990;28;20033;-67
2023/01/01 09:52:58;;;;;;;21.10;3.13;;;22.70;99.90;;;;;;5031945;28;20097;-70
2023/01/01 09:55:32;;;;;;;11.50;1.95;;;22.70;99.90;;;;;;5046169;28;20039;-70
2023/01/01 09:57:59;;;;;;;;;;;22.60;99.90;;;;;;5046605;28;20440;-69
2023/01/01 10:00:30;;;;;;;13.93;2.45;;;22.60;99.90;;;;;;5045085;28;19939;-69
2023/01/01 10:03:25;;;;;;;14.10;2.80;;;22.60;99.90;;;;;;5030484;28;20030;-68
2023/01/01 10:05:56;;;;;;;18.77;2.60;;;22.50;99.90;;;;;;5043702;28;20737;-67
2023/01/01 10:08:35;;;;;;;12.63;3.17;;;22.50;99.90;;;;;;5027626;28;20038;-71
2023/01/01 10:11:20;;;;;;;15.68;2.40;;;22.50;99.90;;;;;;5030546;28;20475;-67
2023/01/01 10:13:49;;;;;;;9.73;1.80;;;22.40;99.90;;;;;;5026806;28;20613;-67
2023/01/01 10:16:40;;;;;;;11.10;2.45;;;22.40;99.90;;;;;;5041755;28;20424;-67
2023/01/01 10:19:35;;;;;;;14.05;2.30;;;22.40;99.90;;;;;;5034599;28;20116;-68
2023/01/01 10:22:15;;;;;;;;;;;22.30;99.90;;;;;;5039597;28;20076;-72
2023/01/01 10:24:45;;;;;;;13.85;3.05;;;22.30;99.90;;;;;;5038126;28;19921;-73
2023/01/01 10:27:24;;;;;;;12.65;2.90;;;22.30;99.90;;;;;;5026299;28;20029;-70
2023/01/01 10:29:52;;;;;;;21.65;3.53;;;22.30;99.90;;;;;;5041129;28;20115;-70
2023/01/01 10:32:21;;;;;;;11.23;2.35;;;22.20;99.90;;;;;;5036264;28;20499;-67
2023/01/01 10:34:50;;;;;;;8.82;2.03;;;22.20;99.90;;;;;;5037703;28;20499;-70
2023/01/01 10:37:17;;;;;;;15.35;2.22;;;22.20;99.90;;;;;;5036292;28;20478;-68
2023/01/01 10:39:46;;;;;;;11.32;2.03;;;22.10;99.90;;;;;;5029311;28;20025;-70
2023/01/01 10:42:15;;;;;;;17.25;4.85;;;22.10;99.90;;;;;;5030602;28;20103;-68
2023/01/01 10:44:43;;;;;;;11.85;2.67;;;22.00;99.90;;;;;;5031397;28;20048;-69
2023/01/01 10:47:27;;;;;;;11.95;2.33;;;22.00;99.90;;;;;;5048822;28;20021;-69
2023/01/01 10:49:56;;;;;;;19.77;3.08;;;22.00;99.90;;;;;;5047151;28;20037;-69
2023/01/01 10:52:30;;;;;;;15.93;3.13;;;22.00;99.90;;;;;;5040530;28;20458;-69
2023/01/01 10:54:58;;;;;;;;;;;22.00;99.90;;;;;;5033422;28;20025;-71
2023/01/01 10:57:36;;;;;;;12.52;2.97;;;22.00;99.90;;;;;;5034790;28;19916;-70
2023/01/01 11:00:24;;;;;;;12.70;2.67;;;22.00;99.90;;;;;;5037640;28;20690;-70
2023/01/01 11:03:20;;;;;;;20.80;2.67;;;22.00;99.90;;;;;;5029561;28;20568;-71
2023/01/01 11:06:17;;;;;;;12.32;2.95;;;22.00;99.90;;;;;;5030184;28;20120;-71
2023/01/01 11:08:50;;;;;;;10.25;2.33;;;22.00;99.90;;;;;;5031270;28;20048;-71
2023/01/01 11:11:37;;;;;;;13.15;3.00;;;21.90;99.90;;;;;;5030781;28;20022;-71
2023/01/01 11:14:05;;;;;;;15.07;3.05;;;21.90;99.90;;;;;;5030861;28;20025;-70
2023/01/01 11:16:32;;;;;;;9.43;1.75;;;21.90;99.90;;;;;;5048734;28;20025;-71
2023/01/01 11:19:05;;;;;;;11.52;1.83;;;21.90;99.90;;;;;;5050680;28;20028;-71
2023/01/01 11:21:34;;;;;;;15.90;2.83;;;21.90;99.90;;;;;;5050729;28;20013;-72
2023/01/01 11:24:32;;;;;;;12.75;2.20;;;21.90;99.90;;;;;;5050714;28;20017;-71
2023/01/01 11:27:25;;;;;;;14.20;2.47;;;21.90;99.90;;;;;;5049120;28;20076;-70
2023/01/01 11:30:12;;;;;;;9.10;2.60;;;21.80;99.90;;;;;;5044741;28;20121;-71
2023/01/01 11:32:39;;;;;;;12.20;2.38;;;21.80;99.90;;;;;;5037217;28;20029;-72
2023/01/01 11:35:19;;;;;;;9.40;2.45;;;21.80;99.90;;;;;;5036665;28;20382;-69
2023/01/01 11:37:48;;;;;;;10.20;2.00;;;21.70;99.90;;;;;;5035832;28;20029;-71
2023/01/01 11:40:32;;;;;;;13.07;2.33;;;21.70;99.90;;;;;;5036355;28;20083;-71
2023/01/01 11:43:01;;;;;;;;;;;21.70;99.90;;;;;;5039677;28;20021;-70
2023/01/01 11:45:34;;;;;;;10.65;2.45;;;21.60;99.90;;;;;;5037213;28;19921;-71
2023/01/01 11:48:26;;;;;;;12.35;2.92;;;21.60;99.90;;;;;;5035720;28;20099;-70
2023/01/01 11:50:56;;;;;;;11.82;3.15;;;21.50;99.90;;;;;;5032971;28;20032;-71
2023/01/01 11:53:23;;;;;;;12.27;2.85;;;21.40;99.90;;;;;;5038582;28;20029;-71
2023/01/01 11:55:57;;;;;;;10.77;2.28;;;21.30;99.90;;;;;;5034161;28;20025;-70
2023/01/01 11:58:36;;;;;;;16.85;3.42;;;21.20;99.90;;;;;;5036609;28;20059;-72
2023/01/01 12:01:25;;;;;;;12.85;2.75;;;21.10;99.90;;;;;;5037651;28;20037;-70
2023/01/01 12:04:36;;;;;;;14.50;2.90;;;21.10;99.90;;;;;;5036559;28;20595;-71
2023/01/01 12:07:28;;;;;;;18.15;3.13;;;20.90;99.90;;;;;;5044313;28;20136;-69
2023/01/01 12:10:04;;;;;;;8.82;1.65;;;20.90;99.90;;;;;;5042963;28;20056;-71
2023/01/01 12:12:34;;;;;;;10.65;2.33;;;20.80;99.90;;;;;;5044566;28;20032;-70
2023/01/01 12:15:19;;;;;;;8.85;2.03;;;20.80;99.90;;;;;;5042761;28;20780;-70
2023/01/01 12:18:18;;;;;;;18.05;3.00;;;20.70;99.90;;;;;;5034819;28;20037;-69
2023/01/01 12:21:07;;;;;;;13.98;3.30;;;20.60;99.90;;;;;;5036082;28;20064;-66
2023/01/01 12:23:35;;;;;;;11.35;2.50;;;20.60;99.90;;;;;;5038169;28;20036;-70
2023/01/01 12:26:02;;;;;;;10.07;2.20;;;20.50;99.90;;;;;;5039518;28;20037;-72
2023/01/01 12:29:08;;;;;;;12.13;2.22;;;20.50;99.90;;;;;;5044421;28;20025;-68
2023/01/01 12:31:51;;;;;;;9.73;2.15;;;20.50;99.90;;;;;;5045710;28;20021;-70
2023/01/01 12:34:26;;;;;;;11.40;3.85;;;20.50;99.90;;;;;;5032090;28;20550;-70
2023/01/01 12:37:05;;;;;;;18.05;3.17;;;20.50;99.90;;;;;;5049362;28;20037;-69
2023/01/01 12:39:47;;;;;;;18.52;2.83;;;20.50;99.90;;;;;;5046339;28;20095;-70
2023/01/01 12:42:35;;;;;;;13.57;2.60;;;20.50;99.90;;;;;;5039907;28;20026;-70
2023/01/01 12:45:17;;;;;;;7.63;2.03;;;20.50;99.90;;;;;;5044764;28;20174;-69
2023/01/01 12:47:53;;;;;;;8.75;3.72;;;20.40;99.90;;;;;;5046471;28;20029;-69
2023/01/01 12:50:56;;;;;;;15.43;3.25;;;20.40;99.90;;;;;;5049115;28;20029;-70
2023/01/01 12:53:57;;;;;;;10.98;3.20;;;20.40;99.90;;;;;;5033857;28;20033;-69
2023/01/01 12:56:48;;;;;;;10.45;2.97;;;20.40;99.90;;;;;;5043613;28;20029;-70
2023/01/01 12:59:30;;;;;;;13.02;2.70;;;20.40;99.90;;;;;;5043127;28;20021;-70
2023/01/01 13:02:01;;;;;;;12.23;2.38;;;20.50;99.90;;;;;;5050890;28;20079;-69
2023/01/01 13:04:29;;;;;;;12.73;2.97;;;20.50;99.90;;;;;;5031878;28;20042;-68
2023/01/01 13:07:07;;;;;;;16.30;3.22;;;20.50;99.90;;;;;;5038292;28;20029;-69
2023/01/01 13:09:43;;;;;;;9.80;1.83;;;20.50;99.90;;;;;;5030174;28;20026;-70
2023/01/01 13:12:19;;;;;;;10.43;3.25;;;20.40;99.90;;;;;;5053337;28;20147;-69
2023/01/01 13:14:49;;;;;;;13.30;2.60;;;20.40;99.90;;;;;;5039977;28;20025;-70
2023/01/01 13:17:22;;;;;;;11.65;2.53;;;20.40;99.90;;;;;;5043326;28;20036;-68
2023/01/01 13:20:20;;;;;;;12.20;2.65;;;20.40;99.90;;;;;;5036609;28;20032;-70